sensor_id;sensor_type;location;lat;lon;timestamp;P1;durP1;ratioP1;P2;durP2;ratioP2
9986;SDS011;5033;46.310;11.214;2023-08-24T00:01:48;7.93;;;7.22;;
9986;SDS011;5033;46.310;11.214;2023-08-24T00:04:15;7.75;;;7.15;;
9986;SDS011;5033;46.310;11.214;2023-08-24T00:06:42;7.72;;;7.05;;
9986;SDS011;5033;46.310;11.214;2023-08-24T00:09:09;7.63;;;6.97;;
9986;SDS011;5033;46.310;11.214;2023-08-24T00:11:37;7.15;;;6.55;;
9986;SDS011;5033;46.310;11.214;2023-08-24T00:14:05;7.90;;;7.15;;
9986;SDS011;5033;46.310;11.214;2023-08-24T00:16:32;7.63;;;7.03;;
9986;SDS011;5033;46.310;11.214;2023-08-24T00:18:59;7.63;;;7.03;;
9986;SDS011;5033;46.310;11.214;2023-08-24T00:21:26;7.10;;;6.50;;
9986;SDS011;5033;46.310;11.214;2023-08-24T00:23:53;6.97;;;6.40;;
9986;SDS011;5033;46.310;11.214;2023-08-24T00:26:20;7.80;;;7.10;;
9986;SDS011;5033;46.310;11.214;2023-08-24T00:28:48;8.15;;;7.28;;
9986;SDS011;5033;46.310;11.214;2023-08-24T00:31:17;8.20;;;7.50;;
9986;SDS011;5033;46.310;11.214;2023-08-24T00:33:44;9.32;;;7.35;;
9986;SDS011;5033;46.310;11.214;2023-08-24T00:36:11;7.75;;;7.13;;
9986;SDS011;5033;46.310;11.214;2023-08-24T00:38:38;8.35;;;7.55;;
9986;SDS011;5033;46.310;11.214;2023-08-24T00:41:05;8.75;;;7.85;;
9986;SDS011;5033;46.310;11.214;2023-08-24T00:43:32;8.68;;;7.82;;
9986;SDS011;5033;46.310;11.214;2023-08-24T00:46:01;9.18;;;8.27;;
9986;SDS011;5033;46.310;11.214;2023-08-24T00:48:30;8.85;;;8.05;;
9986;SDS011;5033;46.310;11.214;2023-08-24T00:50:59;8.48;;;7.88;;
9986;SDS011;5033;46.310;11.214;2023-08-24T00:53:28;9.18;;;8.48;;
9986;SDS011;5033;46.310;11.214;2023-08-24T00:55:55;8.25;;;7.65;;
9986;SDS011;5033;46.310;11.214;2023-08-24T00:58:23;8.30;;;7.70;;
9986;SDS011;5033;46.310;11.214;2023-08-24T01:00:50;8.35;;;7.55;;
9986;SDS011;5033;46.310;11.214;2023-08-24T01:03:18;8.10;;;7.40;;
9986;SDS011;5033;46.310;11.214;2023-08-24T01:05:47;7.47;;;6.88;;
9986;SDS011;5033;46.310;11.214;2023-08-24T01:08:14;7.65;;;7.05;;
9986;SDS011;5033;46.310;11.214;2023-08-24T01:10:44;7.72;;;7.13;;
9986;SDS011;5033;46.310;11.214;2023-08-24T01:13:16;7.72;;;7.03;;
9986;SDS011;5033;46.310;11.214;2023-08-24T01:15:47;7.97;;;7.18;;
9986;SDS011;5033;46.310;11.214;2023-08-24T01:18:19;8.13;;;7.47;;
9986;SDS011;5033;46.310;11.214;2023-08-24T01:20:53;8.63;;;7.72;;
9986;SDS011;5033;46.310;11.214;2023-08-24T01:23:28;8.52;;;7.90;;
9986;SDS011;5033;46.310;11.214;2023-08-24T01:26:11;8.30;;;7.50;;
9986;SDS011;5033;46.310;11.214;2023-08-24T01:28:39;8.48;;;7.68;;
9986;SDS011;5033;46.310;11.214;2023-08-24T01:31:07;8.70;;;7.78;;
9986;SDS011;5033;46.310;11.214;2023-08-24T01:33:35;8.43;;;7.72;;
9986;SDS011;5033;46.310;11.214;2023-08-24T01:36:02;8.18;;;7.47;;
9986;SDS011;5033;46.310;11.214;2023-08-24T01:38:30;7.97;;;7.18;;
9986;SDS011;5033;46.310;11.214;2023-08-24T01:40:59;7.38;;;6.78;;
9986;SDS011;5033;46.310;11.214;2023-08-24T01:43:36;7.30;;;6.70;;
9986;SDS011;5033;46.310;11.214;2023-08-24T01:46:07;6.82;;;6.32;;
9986;SDS011;5033;46.310;11.214;2023-08-24T01:48:34;7.93;;;7.22;;
9986;SDS011;5033;46.310;11.214;2023-08-24T01:51:02;7.40;;;6.82;;
9986;SDS011;5033;46.310;11.214;2023-08-24T01:53:30;7.80;;;7.10;;
9986;SDS011;5033;46.310;11.214;2023-08-24T01:55:58;7.90;;;7.28;;
9986;SDS011;5033;46.310;11.214;2023-08-24T01:58:25;8.13;;;7.43;;
9986;SDS011;5033;46.310;11.214;2023-08-24T02:00:54;7.78;;;7.07;;
9986;SDS011;5033;46.310;11.214;2023-08-24T02:03:21;7.38;;;6.78;;
9986;SDS011;5033;46.310;11.214;2023-08-24T02:05:48;8.18;;;7.47;;
9986;SDS011;5033;46.310;11.214;2023-08-24T02:08:15;7.88;;;7.10;;
9986;SDS011;5033;46.310;11.214;2023-08-24T02:10:42;6.63;;;6.13;;
9986;SDS011;5033;46.310;11.214;2023-08-24T02:13:09;8.25;;;7.55;;
9986;SDS011;5033;46.310;11.214;2023-08-24T02:15:37;7.88;;;7.28;;
9986;SDS011;5033;46.310;11.214;2023-08-24T02:18:07;7.30;;;6.70;;
9986;SDS011;5033;46.310;11.214;2023-08-24T02:20:34;7.00;;;6.45;;
9986;SDS011;5033;46.310;11.214;2023-08-24T02:23:01;7.32;;;6.72;;
9986;SDS011;5033;46.310;11.214;2023-08-24T02:25:28;7.60;;;6.90;;
9986;SDS011;5033;46.310;11.214;2023-08-24T02:27:55;8.40;;;7.65;;
9986;SDS011;5033;46.310;11.214;2023-08-24T02:30:23;7.65;;;6.95;;
9986;SDS011;5033;46.310;11.214;2023-08-24T02:32:50;7.25;;;6.60;;
9986;SDS011;5033;46.310;11.214;2023-08-24T02:35:18;7.25;;;6.65;;
9986;SDS011;5033;46.310;11.214;2023-08-24T02:37:45;8.25;;;7.22;;
9986;SDS011;5033;46.310;11.214;2023-08-24T02:40:12;6.93;;;6.32;;
9986;SDS011;5033;46.310;11.214;2023-08-24T02:42:39;7.38;;;6.70;;
9986;SDS011;5033;46.310;11.214;2023-08-24T02:45:06;7.55;;;6.95;;
9986;SDS011;5033;46.310;11.214;2023-08-24T02:47:33;9.90;;;7.38;;
9986;SDS011;5033;46.310;11.214;2023-08-24T02:50:01;7.00;;;6.50;;
9986;SDS011;5033;46.310;11.214;2023-08-24T02:52:31;7.55;;;6.43;;
9986;SDS011;5033;46.310;11.214;2023-08-24T02:54:57;6.68;;;6.18;;
9986;SDS011;5033;46.310;11.214;2023-08-24T02:57:25;7.30;;;6.60;;
9986;SDS011;5033;46.310;11.214;2023-08-24T02:59:51;6.70;;;6.20;;
9986;SDS011;5033;46.310;11.214;2023-08-24T03:02:18;7.40;;;6.75;;
9986;SDS011;5033;46.310;11.214;2023-08-24T03:04:45;7.15;;;6.55;;
9986;SDS011;5033;46.310;11.214;2023-08-24T03:07:12;6.90;;;6.20;;
9986;SDS011;5033;46.310;11.214;2023-08-24T03:09:41;7.28;;;6.57;;
9986;SDS011;5033;46.310;11.214;2023-08-24T03:12:08;7.53;;;6.82;;
9986;SDS011;5033;46.310;11.214;2023-08-24T03:14:35;6.78;;;6.18;;
9986;SDS011;5033;46.310;11.214;2023-08-24T03:17:02;6.57;;;6.07;;
9986;SDS011;5033;46.310;11.214;2023-08-24T03:19:30;6.65;;;6.15;;
9986;SDS011;5033;46.310;11.214;2023-08-24T03:21:57;6.75;;;6.15;;
9986;SDS011;5033;46.310;11.214;2023-08-24T03:24:24;7.40;;;6.72;;
9986;SDS011;5033;46.310;11.214;2023-08-24T03:26:52;7.85;;;7.25;;
9986;SDS011;5033;46.310;11.214;2023-08-24T03:29:20;7.32;;;6.60;;
9986;SDS011;5033;46.310;11.214;2023-08-24T03:31:47;6.93;;;6.32;;
9986;SDS011;5033;46.310;11.214;2023-08-24T03:34:14;7.07;;;6.47;;
9986;SDS011;5033;46.310;11.214;2023-08-24T03:36:41;6.88;;;6.28;;
9986;SDS011;5033;46.310;11.214;2023-08-24T03:39:08;7.32;;;6.63;;
9986;SDS011;5033;46.310;11.214;2023-08-24T03:41:36;6.57;;;6.07;;
9986;SDS011;5033;46.310;11.214;2023-08-24T03:44:05;7.22;;;6.40;;
9986;SDS011;5033;46.310;11.214;2023-08-24T03:46:31;6.47;;;5.95;;
9986;SDS011;5033;46.310;11.214;2023-08-24T03:48:59;6.28;;;5.78;;
9986;SDS011;5033;46.310;11.214;2023-08-24T03:51:27;7.60;;;6.90;;
9986;SDS011;5033;46.310;11.214;2023-08-24T03:53:54;8.10;;;6.75;;
9986;SDS011;5033;46.310;11.214;2023-08-24T03:56:21;7.40;;;6.70;;
9986;SDS011;5033;46.310;11.214;2023-08-24T03:58:48;7.35;;;6.65;;
9986;SDS011;5033;46.310;11.214;2023-08-24T04:01:16;7.20;;;6.70;;
9986;SDS011;5033;46.310;11.214;2023-08-24T04:03:43;7.35;;;6.50;;
9986;SDS011;5033;46.310;11.214;2023-08-24T04:06:10;7.13;;;6.53;;
9986;SDS011;5033;46.310;11.214;2023-08-24T04:08:37;7.13;;;6.60;;
9986;SDS011;5033;46.310;11.214;2023-08-24T04:11:04;7.20;;;6.60;;
9986;SDS011;5033;46.310;11.214;2023-08-24T04:13:31;7.70;;;6.97;;
9986;SDS011;5033;46.310;11.214;2023-08-24T04:15:58;7.28;;;6.65;;
9986;SDS011;5033;46.310;11.214;2023-08-24T04:18:26;7.35;;;6.75;;
9986;SDS011;5033;46.310;11.214;2023-08-24T04:20:53;7.85;;;7.05;;
9986;SDS011;5033;46.310;11.214;2023-08-24T04:23:23;7.00;;;6.00;;
9986;SDS011;5033;46.310;11.214;2023-08-24T04:25:51;7.93;;;7.15;;
9986;SDS011;5033;46.310;11.214;2023-08-24T04:28:19;7.40;;;6.70;;
9986;SDS011;5033;46.310;11.214;2023-08-24T04:30:49;6.88;;;6.00;;
9986;SDS011;5033;46.310;11.214;2023-08-24T04:33:17;7.45;;;6.75;;
9986;SDS011;5033;46.310;11.214;2023-08-24T04:35:46;7.00;;;6.40;;
9986;SDS011;5033;46.310;11.214;2023-08-24T04:38:13;6.43;;;5.93;;
9986;SDS011;5033;46.310;11.214;2023-08-24T04:40:47;7.43;;;6.72;;
9986;SDS011;5033;46.310;11.214;2023-08-24T04:43:15;6.75;;;6.15;;
9986;SDS011;5033;46.310;11.214;2023-08-24T04:45:42;7.55;;;6.85;;
9986;SDS011;5033;46.310;11.214;2023-08-24T04:48:11;7.63;;;6.93;;
9986;SDS011;5033;46.310;11.214;2023-08-24T04:50:38;7.85;;;7.18;;
9986;SDS011;5033;46.310;11.214;2023-08-24T04:53:07;7.35;;;6.75;;
9986;SDS011;5033;46.310;11.214;2023-08-24T04:55:34;7.95;;;7.18;;
9986;SDS011;5033;46.310;11.214;2023-08-24T04:58:01;7.70;;;7.07;;
9986;SDS011;5033;46.310;11.214;2023-08-24T05:00:28;8.05;;;7.28;;
9986;SDS011;5033;46.310;11.214;2023-08-24T05:02:58;7.00;;;6.18;;
9986;SDS011;5033;46.310;11.214;2023-08-24T05:05:24;6.68;;;6.18;;
9986;SDS011;5033;46.310;11.214;2023-08-24T05:07:53;7.00;;;6.30;;
9986;SDS011;5033;46.310;11.214;2023-08-24T05:10:22;7.15;;;6.50;;
9986;SDS011;5033;46.310;11.214;2023-08-24T05:12:49;6.70;;;6.20;;
9986;SDS011;5033;46.310;11.214;2023-08-24T05:15:16;7.25;;;6.60;;
9986;SDS011;5033;46.310;11.214;2023-08-24T05:17:43;7.38;;;6.38;;
9986;SDS011;5033;46.310;11.214;2023-08-24T05:20:10;7.68;;;7.07;;
9986;SDS011;5033;46.310;11.214;2023-08-24T05:22:37;8.27;;;6.95;;
9986;SDS011;5033;46.310;11.214;2023-08-24T05:25:05;6.68;;;6.07;;
9986;SDS011;5033;46.310;11.214;2023-08-24T05:27:34;7.65;;;6.85;;
9986;SDS011;5033;46.310;11.214;2023-08-24T05:30:01;7.60;;;6.55;;
9986;SDS011;5033;46.310;11.214;2023-08-24T05:32:30;7.68;;;6.95;;
9986;SDS011;5033;46.310;11.214;2023-08-24T05:35:03;7.22;;;6.55;;
9986;SDS011;5033;46.310;11.214;2023-08-24T05:37:30;7.35;;;6.75;;
9986;SDS011;5033;46.310;11.214;2023-08-24T05:39:58;7.07;;;6.47;;
9986;SDS011;5033;46.310;11.214;2023-08-24T05:42:26;7.63;;;6.32;;
9986;SDS011;5033;46.310;11.214;2023-08-24T05:44:54;6.75;;;6.15;;
9986;SDS011;5033;46.310;11.214;2023-08-24T05:47:21;6.63;;;6.03;;
9986;SDS011;5033;46.310;11.214;2023-08-24T05:49:48;6.68;;;6.15;;
9986;SDS011;5033;46.310;11.214;2023-08-24T05:52:15;7.15;;;6.55;;
9986;SDS011;5033;46.310;11.214;2023-08-24T05:54:42;7.13;;;6.53;;
9986;SDS011;5033;46.310;11.214;2023-08-24T05:57:09;7.72;;;6.95;;
9986;SDS011;5033;46.310;11.214;2023-08-24T05:59:36;7.70;;;6.97;;
9986;SDS011;5033;46.310;11.214;2023-08-24T06:02:04;7.90;;;7.10;;
9986;SDS011;5033;46.310;11.214;2023-08-24T06:04:32;10.75;;;7.43;;
9986;SDS011;5033;46.310;11.214;2023-08-24T06:06:58;7.22;;;6.50;;
9986;SDS011;5033;46.310;11.214;2023-08-24T06:09:25;7.75;;;6.97;;
9986;SDS011;5033;46.310;11.214;2023-08-24T06:11:52;8.73;;;6.80;;
9986;SDS011;5033;46.310;11.214;2023-08-24T06:14:19;7.15;;;6.55;;
9986;SDS011;5033;46.310;11.214;2023-08-24T06:16:46;7.53;;;6.93;;
9986;SDS011;5033;46.310;11.214;2023-08-24T06:19:15;7.25;;;6.65;;
9986;SDS011;5033;46.310;11.214;2023-08-24T06:21:42;7.85;;;6.70;;
9986;SDS011;5033;46.310;11.214;2023-08-24T06:24:09;7.82;;;7.03;;
9986;SDS011;5033;46.310;11.214;2023-08-24T06:26:36;8.00;;;7.25;;
9986;SDS011;5033;46.310;11.214;2023-08-24T06:29:03;7.75;;;6.95;;
9986;SDS011;5033;46.310;11.214;2023-08-24T06:31:29;8.18;;;7.43;;
9986;SDS011;5033;46.310;11.214;2023-08-24T06:33:58;8.35;;;7.55;;
9986;SDS011;5033;46.310;11.214;2023-08-24T06:36:26;8.32;;;7.60;;
9986;SDS011;5033;46.310;11.214;2023-08-24T06:38:54;8.82;;;7.38;;
9986;SDS011;5033;46.310;11.214;2023-08-24T06:41:22;9.05;;;8.13;;
9986;SDS011;5033;46.310;11.214;2023-08-24T06:43:49;8.30;;;7.60;;
9986;SDS011;5033;46.310;11.214;2023-08-24T06:46:18;8.73;;;7.57;;
9986;SDS011;5033;46.310;11.214;2023-08-24T06:48:47;8.50;;;7.45;;
9986;SDS011;5033;46.310;11.214;2023-08-24T06:51:14;8.00;;;7.30;;
9986;SDS011;5033;46.310;11.214;2023-08-24T06:53:42;11.50;;;8.07;;
9986;SDS011;5033;46.310;11.214;2023-08-24T06:56:12;8.05;;;7.25;;
9986;SDS011;5033;46.310;11.214;2023-08-24T06:58:40;8.25;;;7.45;;
9986;SDS011;5033;46.310;11.214;2023-08-24T07:01:07;8.20;;;7.45;;
9986;SDS011;5033;46.310;11.214;2023-08-24T07:03:36;8.88;;;8.00;;
9986;SDS011;5033;46.310;11.214;2023-08-24T07:06:03;8.50;;;7.60;;
9986;SDS011;5033;46.310;11.214;2023-08-24T07:08:32;8.38;;;7.60;;
9986;SDS011;5033;46.310;11.214;2023-08-24T07:11:01;7.90;;;7.03;;
9986;SDS011;5033;46.310;11.214;2023-08-24T07:13:28;8.02;;;6.72;;
9986;SDS011;5033;46.310;11.214;2023-08-24T07:15:55;8.48;;;7.68;;
9986;SDS011;5033;46.310;11.214;2023-08-24T07:18:22;7.97;;;7.03;;
9986;SDS011;5033;46.310;11.214;2023-08-24T07:20:49;6.50;;;5.93;;
9986;SDS011;5033;46.310;11.214;2023-08-24T07:23:16;8.13;;;6.90;;
9986;SDS011;5033;46.310;11.214;2023-08-24T07:25:43;7.05;;;6.45;;
9986;SDS011;5033;46.310;11.214;2023-08-24T07:28:11;8.30;;;7.35;;
9986;SDS011;5033;46.310;11.214;2023-08-24T07:30:38;8.07;;;7.22;;
9986;SDS011;5033;46.310;11.214;2023-08-24T07:33:05;8.70;;;7.82;;
9986;SDS011;5033;46.310;11.214;2023-08-24T07:35:32;8.32;;;7.45;;
9986;SDS011;5033;46.310;11.214;2023-08-24T07:38:00;7.78;;;7.07;;
9986;SDS011;5033;46.310;11.214;2023-08-24T07:40:27;8.10;;;7.30;;
9986;SDS011;5033;46.310;11.214;2023-08-24T07:42:55;9.10;;;8.10;;
9986;SDS011;5033;46.310;11.214;2023-08-24T07:45:23;8.43;;;7.60;;
9986;SDS011;5033;46.310;11.214;2023-08-24T07:47:50;11.00;;;7.82;;
9986;SDS011;5033;46.310;11.214;2023-08-24T07:50:17;8.48;;;7.68;;
9986;SDS011;5033;46.310;11.214;2023-08-24T07:52:44;9.30;;;8.32;;
9986;SDS011;5033;46.310;11.214;2023-08-24T07:55:11;8.90;;;8.00;;
9986;SDS011;5033;46.310;11.214;2023-08-24T07:57:38;8.70;;;7.25;;
9986;SDS011;5033;46.310;11.214;2023-08-24T08:00:06;7.85;;;7.15;;
9986;SDS011;5033;46.310;11.214;2023-08-24T08:02:36;10.70;;;7.57;;
9986;SDS011;5033;46.310;11.214;2023-08-24T08:05:03;8.25;;;7.30;;
9986;SDS011;5033;46.310;11.214;2023-08-24T08:07:32;8.60;;;7.72;;
9986;SDS011;5033;46.310;11.214;2023-08-24T08:09:59;9.38;;;7.38;;
9986;SDS011;5033;46.310;11.214;2023-08-24T08:12:26;9.77;;;8.63;;
9986;SDS011;5033;46.310;11.214;2023-08-24T08:14:53;9.27;;;7.63;;
9986;SDS011;5033;46.310;11.214;2023-08-24T08:17:20;9.52;;;8.05;;
9986;SDS011;5033;46.310;11.214;2023-08-24T08:19:49;8.43;;;7.57;;
9986;SDS011;5033;46.310;11.214;2023-08-24T08:22:20;8.82;;;8.02;;
9986;SDS011;5033;46.310;11.214;2023-08-24T08:24:47;8.80;;;7.93;;
9986;SDS011;5033;46.310;11.214;2023-08-24T08:27:15;8.98;;;7.35;;
9986;SDS011;5033;46.310;11.214;2023-08-24T08:29:42;8.70;;;7.90;;
9986;SDS011;5033;46.310;11.214;2023-08-24T08:32:09;8.90;;;8.05;;
9986;SDS011;5033;46.310;11.214;2023-08-24T08:34:37;8.45;;;7.75;;
9986;SDS011;5033;46.310;11.214;2023-08-24T08:37:05;9.10;;;8.23;;
9986;SDS011;5033;46.310;11.214;2023-08-24T08:39:32;9.65;;;8.18;;
9986;SDS011;5033;46.310;11.214;2023-08-24T08:41:59;9.48;;;8.55;;
9986;SDS011;5033;46.310;11.214;2023-08-24T08:44:28;8.82;;;7.97;;
9986;SDS011;5033;46.310;11.214;2023-08-24T08:46:57;11.15;;;8.23;;
9986;SDS011;5033;46.310;11.214;2023-08-24T08:49:24;8.50;;;7.70;;
9986;SDS011;5033;46.310;11.214;2023-08-24T08:51:51;9.25;;;8.18;;
9986;SDS011;5033;46.310;11.214;2023-08-24T08:54:20;11.35;;;8.63;;
9986;SDS011;5033;46.310;11.214;2023-08-24T08:56:48;8.00;;;7.30;;
9986;SDS011;5033;46.310;11.214;2023-08-24T08:59:16;8.55;;;7.85;;
9986;SDS011;5033;46.310;11.214;2023-08-24T09:01:44;10.73;;;8.70;;
9986;SDS011;5033;46.310;11.214;2023-08-24T09:04:13;8.93;;;7.82;;
9986;SDS011;5033;46.310;11.214;2023-08-24T09:06:40;10.38;;;8.88;;
9986;SDS011;5033;46.310;11.214;2023-08-24T09:09:07;9.15;;;8.20;;
9986;SDS011;5033;46.310;11.214;2023-08-24T09:11:36;10.00;;;8.23;;
9986;SDS011;5033;46.310;11.214;2023-08-24T09:14:05;10.77;;;7.72;;
9986;SDS011;5033;46.310;11.214;2023-08-24T09:16:32;9.35;;;8.48;;
9986;SDS011;5033;46.310;11.214;2023-08-24T09:18:59;8.75;;;7.93;;
9986;SDS011;5033;46.310;11.214;2023-08-24T09:21:30;9.82;;;7.72;;
9986;SDS011;5033;46.310;11.214;2023-08-24T09:23:57;9.27;;;8.18;;
9986;SDS011;5033;46.310;11.214;2023-08-24T09:26:27;9.43;;;8.38;;
9986;SDS011;5033;46.310;11.214;2023-08-24T09:28:57;8.95;;;8.15;;
9986;SDS011;5033;46.310;11.214;2023-08-24T09:31:28;10.52;;;8.10;;
9986;SDS011;5033;46.310;11.214;2023-08-24T09:34:02;10.90;;;7.82;;
9986;SDS011;5033;46.310;11.214;2023-08-24T09:36:31;8.30;;;7.57;;
9986;SDS011;5033;46.310;11.214;2023-08-24T09:38:58;9.10;;;8.30;;
9986;SDS011;5033;46.310;11.214;2023-08-24T09:41:36;9.20;;;8.30;;
9986;SDS011;5033;46.310;11.214;2023-08-24T09:44:05;9.85;;;8.70;;
9986;SDS011;5033;46.310;11.214;2023-08-24T09:46:33;9.50;;;8.60;;
9986;SDS011;5033;46.310;11.214;2023-08-24T09:49:01;8.70;;;7.80;;
9986;SDS011;5033;46.310;11.214;2023-08-24T09:51:46;10.18;;;9.27;;
9986;SDS011;5033;46.310;11.214;2023-08-24T09:54:31;9.90;;;8.55;;
9986;SDS011;5033;46.310;11.214;2023-08-24T10:00:35;8.85;;;8.05;;
9986;SDS011;5033;46.310;11.214;2023-08-24T10:03:04;9.82;;;8.93;;
9986;SDS011;5033;46.310;11.214;2023-08-24T10:06:04;11.30;;;8.73;;
9986;SDS011;5033;46.310;11.214;2023-08-24T10:08:54;8.82;;;8.02;;
9986;SDS011;5033;46.310;11.214;2023-08-24T10:12:04;9.07;;;8.35;;
9986;SDS011;5033;46.310;11.214;2023-08-24T10:19:30;8.95;;;8.15;;
9986;SDS011;5033;46.310;11.214;2023-08-24T10:22:48;9.32;;;8.43;;
9986;SDS011;5033;46.310;11.214;2023-08-24T10:25:37;9.07;;;8.18;;
9986;SDS011;5033;46.310;11.214;2023-08-24T11:28:23;11.00;;;7.88;;
9986;SDS011;5033;46.310;11.214;2023-08-24T11:30:53;9.63;;;7.93;;
9986;SDS011;5033;46.310;11.214;2023-08-24T11:36:21;7.22;;;6.53;;
9986;SDS011;5033;46.310;11.214;2023-08-24T11:39:14;7.82;;;6.40;;
9986;SDS011;5033;46.310;11.214;2023-08-24T11:45:46;8.05;;;6.35;;
9986;SDS011;5033;46.310;11.214;2023-08-24T11:48:47;8.05;;;6.93;;
9986;SDS011;5033;46.310;11.214;2023-08-24T11:51:14;7.65;;;6.85;;
9986;SDS011;5033;46.310;11.214;2023-08-24T11:53:53;8.68;;;7.22;;
9986;SDS011;5033;46.310;11.214;2023-08-24T11:56:23;8.38;;;7.63;;
9986;SDS011;5033;46.310;11.214;2023-08-24T11:58:50;9.05;;;7.07;;
9986;SDS011;5033;46.310;11.214;2023-08-24T12:01:18;8.10;;;7.25;;
9986;SDS011;5033;46.310;11.214;2023-08-24T12:03:45;8.18;;;7.35;;
9986;SDS011;5033;46.310;11.214;2023-08-24T12:06:13;8.82;;;7.40;;
9986;SDS011;5033;46.310;11.214;2023-08-24T12:08:41;9.95;;;7.55;;
9986;SDS011;5033;46.310;11.214;2023-08-24T12:11:10;8.85;;;6.88;;
9986;SDS011;5033;46.310;11.214;2023-08-24T12:13:42;10.48;;;7.78;;
9986;SDS011;5033;46.310;11.214;2023-08-24T12:16:10;8.95;;;7.97;;
9986;SDS011;5033;46.310;11.214;2023-08-24T12:18:47;10.20;;;7.97;;
9986;SDS011;5033;46.310;11.214;2023-08-24T12:21:17;9.15;;;6.88;;
9986;SDS011;5033;46.310;11.214;2023-08-24T12:23:44;8.07;;;7.35;;
9986;SDS011;5033;46.310;11.214;2023-08-24T12:26:20;8.05;;;7.35;;
9986;SDS011;5033;46.310;11.214;2023-08-24T12:28:50;8.23;;;7.30;;
9986;SDS011;5033;46.310;11.214;2023-08-24T12:31:18;8.48;;;7.47;;
9986;SDS011;5033;46.310;11.214;2023-08-24T12:33:59;8.38;;;7.57;;
9986;SDS011;5033;46.310;11.214;2023-08-24T12:36:28;9.30;;;8.13;;
9986;SDS011;5033;46.310;11.214;2023-08-24T12:38:55;8.60;;;7.88;;
9986;SDS011;5033;46.310;11.214;2023-08-24T12:41:22;9.07;;;8.18;;
9986;SDS011;5033;46.310;11.214;2023-08-24T12:43:50;11.82;;;8.00;;
9986;SDS011;5033;46.310;11.214;2023-08-24T12:46:17;12.30;;;9.20;;
9986;SDS011;5033;46.310;11.214;2023-08-24T12:48:44;10.10;;;8.85;;
9986;SDS011;5033;46.310;11.214;2023-08-24T12:51:12;11.70;;;9.20;;
9986;SDS011;5033;46.310;11.214;2023-08-24T12:53:39;12.40;;;9.65;;
9986;SDS011;5033;46.310;11.214;2023-08-24T12:56:06;10.63;;;9.40;;
9986;SDS011;5033;46.310;11.214;2023-08-24T12:58:33;12.13;;;9.20;;
9986;SDS011;5033;46.310;11.214;2023-08-24T13:01:00;12.02;;;9.02;;
9986;SDS011;5033;46.310;11.214;2023-08-24T13:03:27;10.68;;;9.02;;
9986;SDS011;5033;46.310;11.214;2023-08-24T13:05:54;16.75;;;9.48;;
9986;SDS011;5033;46.310;11.214;2023-08-24T13:08:23;11.30;;;9.13;;
9986;SDS011;5033;46.310;11.214;2023-08-24T13:10:50;10.13;;;9.13;;
9986;SDS011;5033;46.310;11.214;2023-08-24T13:13:18;15.35;;;9.73;;
9986;SDS011;5033;46.310;11.214;2023-08-24T13:15:46;10.23;;;8.82;;
9986;SDS011;5033;46.310;11.214;2023-08-24T13:18:14;10.55;;;9.35;;
9986;SDS011;5033;46.310;11.214;2023-08-24T13:20:41;13.68;;;9.50;;
9986;SDS011;5033;46.310;11.214;2023-08-24T13:23:08;13.57;;;10.40;;
9986;SDS011;5033;46.310;11.214;2023-08-24T13:25:36;11.10;;;10.00;;
9986;SDS011;5033;46.310;11.214;2023-08-24T13:28:03;22.38;;;9.48;;
9986;SDS011;5033;46.310;11.214;2023-08-24T13:30:31;11.10;;;9.68;;
9986;SDS011;5033;46.310;11.214;2023-08-24T13:32:58;11.38;;;9.23;;
9986;SDS011;5033;46.310;11.214;2023-08-24T13:35:25;11.23;;;9.73;;
9986;SDS011;5033;46.310;11.214;2023-08-24T13:37:52;12.13;;;9.65;;
9986;SDS011;5033;46.310;11.214;2023-08-24T13:40:19;12.23;;;9.27;;
9986;SDS011;5033;46.310;11.214;2023-08-24T13:42:47;10.48;;;9.40;;
9986;SDS011;5033;46.310;11.214;2023-08-24T13:45:14;11.48;;;9.57;;
9986;SDS011;5033;46.310;11.214;2023-08-24T13:47:41;11.82;;;9.45;;
9986;SDS011;5033;46.310;11.214;2023-08-24T13:50:08;11.13;;;9.23;;
9986;SDS011;5033;46.310;11.214;2023-08-24T13:52:35;11.07;;;10.07;;
9986;SDS011;5033;46.310;11.214;2023-08-24T13:55:05;10.75;;;9.65;;
9986;SDS011;5033;46.310;11.214;2023-08-24T13:57:33;10.32;;;9.32;;
9986;SDS011;5033;46.310;11.214;2023-08-24T14:00:01;11.50;;;9.15;;
9986;SDS011;5033;46.310;11.214;2023-08-24T14:02:29;10.43;;;9.35;;
9986;SDS011;5033;46.310;11.214;2023-08-24T14:04:56;10.43;;;8.98;;
9986;SDS011;5033;46.310;11.214;2023-08-24T14:07:23;12.80;;;9.43;;
9986;SDS011;5033;46.310;11.214;2023-08-24T14:09:50;12.73;;;10.15;;
9986;SDS011;5033;46.310;11.214;2023-08-24T14:12:17;11.25;;;9.88;;
9986;SDS011;5033;46.310;11.214;2023-08-24T14:14:44;14.20;;;9.90;;
9986;SDS011;5033;46.310;11.214;2023-08-24T14:17:12;10.55;;;9.48;;
9986;SDS011;5033;46.310;11.214;2023-08-24T14:19:39;12.13;;;9.95;;
9986;SDS011;5033;46.310;11.214;2023-08-24T14:22:06;12.02;;;9.38;;
9986;SDS011;5033;46.310;11.214;2023-08-24T14:24:35;12.27;;;9.52;;
9986;SDS011;5033;46.310;11.214;2023-08-24T14:27:02;10.82;;;9.30;;
9986;SDS011;5033;46.310;11.214;2023-08-24T14:29:29;9.88;;;8.82;;
9986;SDS011;5033;46.310;11.214;2023-08-24T14:31:56;11.70;;;9.85;;
9986;SDS011;5033;46.310;11.214;2023-08-24T14:34:24;13.27;;;9.65;;
9986;SDS011;5033;46.310;11.214;2023-08-24T14:36:51;10.00;;;9.10;;
9986;SDS011;5033;46.310;11.214;2023-08-24T14:39:19;10.40;;;9.40;;
9986;SDS011;5033;46.310;11.214;2023-08-24T14:41:46;10.15;;;9.13;;
9986;SDS011;5033;46.310;11.214;2023-08-24T14:44:12;9.63;;;8.63;;
9986;SDS011;5033;46.310;11.214;2023-08-24T14:46:39;10.18;;;9.02;;
9986;SDS011;5033;46.310;11.214;2023-08-24T14:49:06;13.13;;;9.57;;
9986;SDS011;5033;46.310;11.214;2023-08-24T14:51:35;9.48;;;8.50;;
9986;SDS011;5033;46.310;11.214;2023-08-24T14:54:01;11.82;;;8.68;;
9986;SDS011;5033;46.310;11.214;2023-08-24T14:56:28;9.93;;;8.73;;
9986;SDS011;5033;46.310;11.214;2023-08-24T14:58:57;10.70;;;8.95;;
9986;SDS011;5033;46.310;11.214;2023-08-24T15:01:24;11.18;;;8.93;;
9986;SDS011;5033;46.310;11.214;2023-08-24T15:03:51;10.55;;;8.48;;
9986;SDS011;5033;46.310;11.214;2023-08-24T15:06:17;9.52;;;8.52;;
9986;SDS011;5033;46.310;11.214;2023-08-24T15:08:46;13.02;;;9.50;;
9986;SDS011;5033;46.310;11.214;2023-08-24T15:11:13;10.00;;;9.02;;
9986;SDS011;5033;46.310;11.214;2023-08-24T15:13:41;12.00;;;8.68;;
9986;SDS011;5033;46.310;11.214;2023-08-24T15:16:09;9.50;;;8.23;;
9986;SDS011;5033;46.310;11.214;2023-08-24T15:18:36;13.82;;;9.10;;
9986;SDS011;5033;46.310;11.214;2023-08-24T15:21:03;8.27;;;7.40;;
9986;SDS011;5033;46.310;11.214;2023-08-24T15:23:30;10.52;;;8.52;;
9986;SDS011;5033;46.310;11.214;2023-08-24T15:25:59;11.18;;;7.30;;
9986;SDS011;5033;46.310;11.214;2023-08-24T15:28:34;7.53;;;6.53;;
9986;SDS011;5033;46.310;11.214;2023-08-24T15:31:02;7.68;;;6.93;;
9986;SDS011;5033;46.310;11.214;2023-08-24T15:33:29;8.88;;;6.75;;
9986;SDS011;5033;46.310;11.214;2023-08-24T15:35:56;6.90;;;6.18;;
9986;SDS011;5033;46.310;11.214;2023-08-24T15:38:23;7.68;;;6.63;;
9986;SDS011;5033;46.310;11.214;2023-08-24T15:40:51;8.02;;;7.30;;
9986;SDS011;5033;46.310;11.214;2023-08-24T15:43:21;8.18;;;7.30;;
9986;SDS011;5033;46.310;11.214;2023-08-24T15:45:48;11.98;;;7.45;;
9986;SDS011;5033;46.310;11.214;2023-08-24T15:48:17;7.47;;;6.78;;
9986;SDS011;5033;46.310;11.214;2023-08-24T15:50:44;7.32;;;6.63;;
9986;SDS011;5033;46.310;11.214;2023-08-24T15:53:11;11.75;;;8.10;;
9986;SDS011;5033;46.310;11.214;2023-08-24T15:55:38;12.13;;;7.20;;
9986;SDS011;5033;46.310;11.214;2023-08-24T15:58:04;9.63;;;7.75;;
9986;SDS011;5033;46.310;11.214;2023-08-24T16:00:33;9.50;;;7.80;;
9986;SDS011;5033;46.310;11.214;2023-08-24T16:03:00;11.65;;;8.30;;
9986;SDS011;5033;46.310;11.214;2023-08-24T16:05:27;13.82;;;8.55;;
9986;SDS011;5033;46.310;11.214;2023-08-24T16:07:54;6.97;;;6.35;;
9986;SDS011;5033;46.310;11.214;2023-08-24T16:10:21;8.85;;;7.05;;
9986;SDS011;5033;46.310;11.214;2023-08-24T16:12:48;10.25;;;6.88;;
9986;SDS011;5033;46.310;11.214;2023-08-24T16:15:15;7.78;;;6.13;;
9986;SDS011;5033;46.310;11.214;2023-08-24T16:17:43;8.15;;;6.35;;
9986;SDS011;5033;46.310;11.214;2023-08-24T16:20:11;7.55;;;6.75;;
9986;SDS011;5033;46.310;11.214;2023-08-24T16:22:38;12.18;;;6.45;;